createdAt,value
2023-02-12T00:01:53.744Z,1.40
2023-02-12T00:04:56.294Z,1.67
2023-02-12T00:07:58.348Z,1.38
2023-02-12T00:11:06.938Z,1.15
2023-02-12T00:14:08.852Z,1.50
2023-02-12T00:17:12.300Z,1.30
2023-02-12T00:20:14.246Z,1.45
2023-02-12T00:23:17.555Z,1.30
2023-02-12T00:26:21.837Z,1.00
2023-02-12T00:29:25.822Z,0.90
2023-02-12T00:32:28.182Z,1.00
2023-02-12T00:35:30.937Z,1.17
2023-02-12T00:38:33.166Z,1.23
2023-02-12T00:41:35.756Z,1.20
2023-02-12T00:44:37.944Z,1.45
2023-02-12T00:47:40.286Z,1.20
2023-02-12T00:50:48.528Z,1.42
2023-02-12T00:53:52.146Z,1.17
2023-02-12T00:56:55.878Z,1.30
2023-02-12T00:59:58.235Z,1.10
2023-02-12T01:03:00.690Z,1.05
2023-02-12T01:06:03.334Z,1.15
2023-02-12T01:09:05.373Z,1.25
2023-02-12T01:12:08.079Z,1.33
2023-02-12T01:15:11.052Z,1.27
2023-02-12T01:18:16.321Z,1.40
2023-02-12T01:21:22.068Z,1.40
2023-02-12T01:24:24.615Z,1.40
2023-02-12T01:27:26.798Z,1.40
2023-02-12T01:30:31.554Z,1.35
2023-02-12T01:33:33.872Z,1.80
2023-02-12T01:36:36.540Z,1.85
2023-02-12T01:39:38.856Z,1.80
2023-02-12T01:42:41.426Z,4.78
2023-02-12T01:45:47.980Z,7.70
2023-02-12T01:48:50.530Z,6.53
2023-02-12T01:52:00.603Z,2.20
2023-02-12T01:55:06.741Z,2.13
2023-02-12T01:58:10.228Z,1.83
2023-02-12T02:01:21.997Z,1.80
2023-02-12T02:04:29.176Z,1.75
2023-02-12T02:07:32.016Z,1.70
2023-02-12T02:10:34.099Z,1.33
2023-02-12T02:13:55.589Z,1.48
2023-02-12T02:17:10.991Z,1.35
2023-02-12T02:20:26.768Z,1.38
2023-02-12T02:23:40.043Z,1.42
2023-02-12T02:27:09.227Z,0.90
2023-02-12T02:30:34.646Z,0.93
2023-02-12T02:33:44.387Z,1.60
2023-02-12T02:37:02.181Z,1.20
2023-02-12T02:40:23.237Z,1.10
2023-02-12T02:43:44.865Z,1.40
2023-02-12T02:46:50.846Z,1.10
2023-02-12T02:49:57.941Z,0.90
2023-02-12T02:53:06.304Z,1.20
2023-02-12T02:56:14.588Z,1.17
2023-02-12T02:59:27.738Z,1.10
2023-02-12T03:02:33.788Z,0.90
2023-02-12T03:05:41.596Z,1.10
2023-02-12T03:08:53.075Z,1.00
2023-02-12T03:12:01.207Z,1.10
2023-02-12T03:15:15.250Z,1.10
2023-02-12T03:18:22.429Z,1.15
2023-02-12T03:21:31.336Z,1.10
2023-02-12T03:24:45.827Z,0.98
2023-02-12T03:27:57.178Z,1.08
2023-02-12T03:31:24.758Z,1.00
2023-02-12T03:34:48.399Z,1.20
2023-02-12T03:37:53.789Z,1.10
2023-02-12T03:41:06.857Z,1.10
2023-02-12T03:44:18.202Z,1.30
2023-02-12T03:47:32.559Z,0.98
2023-02-12T03:50:47.086Z,1.30
2023-02-12T03:53:49.659Z,0.88
2023-02-12T03:57:07.889Z,1.10
2023-02-12T04:00:18.614Z,1.55
2023-02-12T04:03:23.503Z,1.40
2023-02-12T04:06:27.857Z,1.25
2023-02-12T04:09:31.976Z,1.10
2023-02-12T04:12:41.431Z,1.20
2023-02-12T04:15:58.881Z,1.27
2023-02-12T04:19:01.935Z,1.38
2023-02-12T04:22:45.162Z,1.45
2023-02-12T04:25:56.279Z,1.10
2023-02-12T04:28:58.810Z,1.15
2023-02-12T04:32:51.590Z,1.40
2023-02-12T04:36:06.760Z,1.30
2023-02-12T04:42:17.846Z,1.35
2023-02-12T04:45:32.032Z,1.45
2023-02-12T04:48:35.662Z,1.40
2023-02-12T04:51:37.863Z,1.38
2023-02-12T04:54:40.123Z,1.08
2023-02-12T04:57:42.199Z,1.00
2023-02-12T05:00:45.050Z,1.10
2023-02-12T05:03:47.246Z,1.40
2023-02-12T05:06:49.780Z,1.25
2023-02-12T05:09:52.205Z,1.52
2023-02-12T05:12:56.064Z,1.40
2023-02-12T05:15:58.479Z,1.63
2023-02-12T05:19:01.100Z,1.40
2023-02-12T05:22:03.496Z,1.70
2023-02-12T05:25:06.371Z,1.13
2023-02-12T05:28:08.605Z,1.10
2023-02-12T05:31:14.735Z,1.00
2023-02-12T05:34:16.741Z,1.00
2023-02-12T05:37:19.262Z,1.00
2023-02-12T05:40:21.451Z,1.00
2023-02-12T05:43:24.347Z,1.30
2023-02-12T05:46:26.708Z,1.00
2023-02-12T05:49:29.021Z,1.35
2023-02-12T05:52:31.531Z,1.10
2023-02-12T05:55:33.993Z,1.33
2023-02-12T05:58:36.222Z,1.20
2023-02-12T06:01:41.508Z,1.10
2023-02-12T06:04:43.622Z,1.00
2023-02-12T06:07:46.163Z,0.88
2023-02-12T06:10:50.521Z,1.00
2023-02-12T06:13:53.395Z,1.30
2023-02-12T06:16:55.345Z,1.00
2023-02-12T06:19:57.886Z,1.00
2023-02-12T06:23:00.014Z,1.30
2023-02-12T06:26:02.942Z,0.90
2023-02-12T06:29:05.172Z,1.15
2023-02-12T06:32:08.660Z,1.10
2023-02-12T06:35:10.610Z,1.30
2023-02-12T06:38:14.168Z,1.00
2023-02-12T06:41:17.163Z,0.77
2023-02-12T06:44:19.597Z,0.95
2023-02-12T06:47:21.910Z,1.13
2023-02-12T06:50:25.286Z,1.42
2023-02-12T06:53:27.238Z,1.30
2023-02-12T06:56:29.617Z,1.10
2023-02-12T06:59:32.307Z,1.42
2023-02-12T07:02:38.937Z,1.00
2023-02-12T07:05:41.822Z,1.10
2023-02-12T07:08:44.588Z,1.15
2023-02-12T07:11:46.637Z,1.23
2023-02-12T07:14:49.013Z,1.08
2023-02-12T07:17:52.496Z,1.10
2023-02-12T07:20:57.027Z,1.08
2023-02-12T07:23:59.141Z,1.00
2023-02-12T07:27:01.733Z,1.02
2023-02-12T07:30:08.277Z,1.02
2023-02-12T07:33:10.559Z,1.00
2023-02-12T07:36:14.763Z,0.93
2023-02-12T07:42:19.036Z,0.90
2023-02-12T07:45:25.502Z,1.17
2023-02-12T07:48:27.486Z,1.02
2023-02-12T07:51:30.539Z,0.98
2023-02-12T07:54:32.479Z,1.00
2023-02-12T07:57:36.575Z,1.10
2023-02-12T08:00:38.737Z,0.90
2023-02-12T08:03:41.933Z,0.90
2023-02-12T08:06:45.995Z,0.90
2023-02-12T08:09:48.466Z,1.00
2023-02-12T08:12:51.415Z,0.90
2023-02-12T08:16:01.326Z,0.90
2023-02-12T08:19:16.541Z,0.70
2023-02-12T08:22:30.700Z,1.08
2023-02-12T08:25:32.661Z,0.80
2023-02-12T08:28:36.099Z,0.82
2023-02-12T08:31:41.988Z,0.70
2023-02-12T08:34:44.395Z,0.80
2023-02-12T08:37:48.522Z,0.90
2023-02-12T08:43:55.528Z,0.77
2023-02-12T08:46:59.927Z,0.70
2023-02-12T08:50:02.070Z,0.85
2023-02-12T08:53:05.029Z,0.82
2023-02-12T08:56:10.068Z,0.73
2023-02-12T08:59:14.217Z,0.80
2023-02-12T09:02:16.173Z,0.87
2023-02-12T09:05:18.991Z,0.70
2023-02-12T09:08:21.192Z,1.00
2023-02-12T09:11:30.856Z,0.77
2023-02-12T09:14:33.036Z,0.90
2023-02-12T09:17:35.426Z,0.98
2023-02-12T09:20:42.554Z,0.80
2023-02-12T09:23:44.982Z,0.95
2023-02-12T09:26:46.931Z,1.48
2023-02-12T09:29:49.784Z,0.70
2023-02-12T09:32:52.209Z,0.80
2023-02-12T09:35:54.959Z,0.90
2023-02-12T09:38:59.550Z,0.77
2023-02-12T09:42:08.465Z,0.77
2023-02-12T09:45:33.164Z,0.70
2023-02-12T09:51:51.336Z,0.93
2023-02-12T09:54:54.973Z,1.02
2023-02-12T09:57:57.324Z,1.00
2023-02-12T10:01:01.777Z,1.20
2023-02-12T10:04:05.517Z,1.00
2023-02-12T10:07:17.961Z,1.17
2023-02-12T10:10:20.153Z,0.93
2023-02-12T10:13:46.770Z,0.85
2023-02-12T10:17:07.531Z,0.80
2023-02-12T10:20:17.336Z,0.75
2023-02-12T10:23:25.718Z,0.60
2023-02-12T10:26:36.064Z,0.80
2023-02-12T10:29:42.622Z,0.95
2023-02-12T10:32:47.631Z,1.10
2023-02-12T10:35:55.065Z,0.80
2023-02-12T10:39:03.100Z,1.08
2023-02-12T10:42:26.202Z,0.73
2023-02-12T10:45:35.381Z,1.52
2023-02-12T10:48:41.359Z,0.82
2023-02-12T10:52:03.821Z,0.90
2023-02-12T10:55:24.227Z,0.80
2023-02-12T10:58:26.725Z,0.93
2023-02-12T11:01:39.378Z,0.82
2023-02-12T11:04:41.971Z,0.85
2023-02-12T11:07:49.898Z,0.80
2023-02-12T11:10:52.874Z,0.90
2023-02-12T11:14:02.739Z,0.90
2023-02-12T11:17:05.228Z,0.80
2023-02-12T11:20:19.482Z,1.08
2023-02-12T11:23:32.303Z,1.10
2023-02-12T11:26:34.756Z,1.00
2023-02-12T11:29:37.990Z,1.00
2023-02-12T11:32:40.920Z,0.93
2023-02-12T11:35:57.819Z,0.70
2023-02-12T11:39:00.733Z,0.63
2023-02-12T11:42:14.945Z,1.00
2023-02-12T11:45:19.964Z,0.70
2023-02-12T11:48:25.684Z,0.85
2023-02-12T11:51:31.313Z,0.90
2023-02-12T11:54:42.636Z,0.88
2023-02-12T11:58:02.907Z,0.88
2023-02-12T12:01:15.058Z,0.85
2023-02-12T12:04:21.591Z,0.90
2023-02-12T12:07:34.304Z,1.02
2023-02-12T12:10:51.255Z,0.80
2023-02-12T12:14:18.362Z,0.98
2023-02-12T12:17:43.177Z,0.70
2023-02-12T12:21:01.208Z,0.82
2023-02-12T12:24:11.328Z,1.00
2023-02-12T12:27:43.005Z,0.70
2023-02-12T12:31:10.137Z,0.85
2023-02-12T12:34:19.447Z,1.00
2023-02-12T12:37:42.541Z,1.38
2023-02-12T12:41:07.257Z,1.10
2023-02-12T12:44:43.392Z,0.98
2023-02-12T12:47:55.243Z,1.00
2023-02-12T12:51:03.360Z,0.90
2023-02-12T12:54:25.173Z,0.90
2023-02-12T12:57:50.466Z,1.15
2023-02-12T13:01:04.287Z,0.85
2023-02-12T13:04:25.000Z,1.05
2023-02-12T13:08:01.220Z,1.10
2023-02-12T13:11:28.177Z,1.15
2023-02-12T13:14:50.024Z,0.90
2023-02-12T13:18:04.322Z,0.85
2023-02-12T13:21:42.620Z,0.90
2023-02-12T13:25:00.883Z,1.23
2023-02-12T13:28:06.324Z,1.20
2023-02-12T13:31:32.139Z,1.65
2023-02-12T13:34:37.228Z,2.58
2023-02-12T13:37:46.846Z,2.17
2023-02-12T13:40:52.307Z,1.00
2023-02-12T13:44:13.220Z,1.33
2023-02-12T13:47:29.931Z,1.40
2023-02-12T13:51:01.356Z,1.00
2023-02-12T13:54:19.144Z,1.00
2023-02-12T13:57:21.599Z,2.97
2023-02-12T14:00:52.195Z,5.53
2023-02-12T14:03:54.465Z,5.38
2023-02-12T14:07:07.334Z,4.78
2023-02-12T14:10:22.482Z,5.75
2023-02-12T14:13:28.582Z,6.03
2023-02-12T14:16:33.408Z,6.82
2023-02-12T14:19:52.817Z,5.38
2023-02-12T14:23:22.949Z,5.85
2023-02-12T14:26:25.761Z,5.63
2023-02-12T14:29:29.023Z,5.05
2023-02-12T14:32:50.422Z,5.88
2023-02-12T14:36:16.390Z,6.75
2023-02-12T14:39:25.129Z,5.35
2023-02-12T14:42:56.998Z,6.45
2023-02-12T14:46:22.659Z,5.07
2023-02-12T14:49:28.897Z,5.40
2023-02-12T14:52:34.029Z,6.40
2023-02-12T14:58:40.778Z,1.98
2023-02-12T15:01:44.543Z,1.40
2023-02-12T15:04:49.011Z,1.60
2023-02-12T15:07:59.410Z,1.45
2023-02-12T15:11:21.628Z,1.20
2023-02-12T15:14:32.491Z,1.20
2023-02-12T15:17:40.192Z,1.20
2023-02-12T15:20:51.567Z,1.38
2023-02-12T15:24:12.511Z,0.93
2023-02-12T15:27:16.076Z,1.10
2023-02-12T15:30:26.278Z,1.00
2023-02-12T15:33:32.423Z,1.23
2023-02-12T15:36:36.611Z,1.02
2023-02-12T15:39:44.427Z,0.90
2023-02-12T15:42:54.449Z,0.93
2023-02-12T15:45:56.810Z,1.38
2023-02-12T15:49:00.481Z,1.43
2023-02-12T15:52:25.138Z,1.38
2023-02-12T15:55:33.616Z,1.67
2023-02-12T15:58:55.809Z,2.15
2023-02-12T16:02:02.546Z,1.40
2023-02-12T16:05:06.189Z,1.73
2023-02-12T16:08:16.573Z,1.52
2023-02-12T16:11:21.579Z,1.40
2023-02-12T16:14:43.657Z,1.42
2023-02-12T16:17:48.750Z,1.40
2023-02-12T16:21:17.686Z,0.93
2023-02-12T16:24:32.208Z,1.10
2023-02-12T16:27:35.635Z,1.30
2023-02-12T16:30:42.505Z,1.13
2023-02-12T16:33:49.875Z,0.90
2023-02-12T16:36:52.329Z,1.25
2023-02-12T16:39:58.520Z,1.23
2023-02-12T16:43:23.074Z,1.30
2023-02-12T16:46:26.386Z,1.20
2023-02-12T16:49:28.943Z,1.30
2023-02-12T16:52:40.044Z,2.65
2023-02-12T16:55:42.673Z,1.60
2023-02-12T16:58:47.044Z,3.10
2023-02-12T17:02:04.288Z,2.20
2023-02-12T17:05:07.587Z,2.00
2023-02-12T17:08:15.357Z,1.98
2023-02-12T17:11:18.581Z,1.80
2023-02-12T17:14:21.384Z,1.75
2023-02-12T17:17:23.776Z,1.88
2023-02-12T17:20:25.838Z,1.40
2023-02-12T17:23:29.385Z,1.25
2023-02-12T17:26:31.398Z,1.27
2023-02-12T17:29:33.964Z,1.58
2023-02-12T17:32:35.952Z,1.95
2023-02-12T17:35:39.415Z,1.17
2023-02-12T17:38:41.601Z,1.70
2023-02-12T17:41:44.893Z,1.48
2023-02-12T17:44:47.028Z,1.95
2023-02-12T17:47:50.027Z,1.92
2023-02-12T17:50:58.211Z,1.70
2023-02-12T17:54:01.636Z,1.63
2023-02-12T17:57:04.402Z,1.83
2023-02-12T18:00:14.661Z,1.70
2023-02-12T18:03:16.850Z,1.75
2023-02-12T18:06:28.894Z,1.70
2023-02-12T18:09:31.541Z,2.00
2023-02-12T18:12:35.072Z,2.03
2023-02-12T18:15:37.673Z,2.00
2023-02-12T18:18:41.113Z,2.10
2023-02-12T18:21:43.105Z,2.10
2023-02-12T18:24:46.136Z,2.00
2023-02-12T18:27:48.267Z,2.08
2023-02-12T18:31:00.235Z,2.40
2023-02-12T18:34:04.861Z,1.70
2023-02-12T18:37:08.051Z,1.70
2023-02-12T18:40:10.503Z,1.67
2023-02-12T18:43:13.656Z,1.58
2023-02-12T18:46:28.580Z,1.80
2023-02-12T18:49:31.178Z,1.65
2023-02-12T18:52:33.251Z,1.67
2023-02-12T18:55:39.420Z,2.10
2023-02-12T18:58:42.042Z,1.55
2023-02-12T19:01:44.880Z,1.40
2023-02-12T19:04:46.983Z,1.60
2023-02-12T19:07:49.327Z,1.42
2023-02-12T19:10:51.309Z,1.85
2023-02-12T19:13:54.857Z,2.05
2023-02-12T19:16:57.307Z,2.00
2023-02-12T19:19:59.682Z,1.70
2023-02-12T19:23:01.735Z,1.52
2023-02-12T19:26:06.829Z,1.70
2023-02-12T19:29:09.091Z,2.10
2023-02-12T19:32:11.864Z,2.28
2023-02-12T19:35:14.089Z,2.13
2023-02-12T19:38:16.781Z,2.60
2023-02-12T19:41:21.830Z,2.33
2023-02-12T19:44:25.974Z,2.53
2023-02-12T19:47:28.030Z,2.00
2023-02-12T19:50:30.576Z,2.25
2023-02-12T19:53:32.655Z,2.20
2023-02-12T19:56:35.646Z,2.92
2023-02-12T19:59:37.857Z,2.20
2023-02-12T20:02:41.687Z,2.22
2023-02-12T20:05:51.812Z,2.30
2023-02-12T20:08:54.640Z,1.90
2023-02-12T20:11:57.571Z,2.42
2023-02-12T20:15:02.742Z,2.20
2023-02-12T20:18:06.015Z,1.95
2023-02-12T20:21:14.105Z,2.33
2023-02-12T20:24:16.408Z,2.25
2023-02-12T20:27:19.010Z,2.42
2023-02-12T20:30:21.196Z,2.55
2023-02-12T20:33:23.646Z,2.22
2023-02-12T20:36:26.786Z,2.28
2023-02-12T20:39:29.546Z,2.13
2023-02-12T20:42:32.686Z,1.80
2023-02-12T20:45:35.348Z,2.15
2023-02-12T20:48:37.797Z,2.28
2023-02-12T20:51:41.317Z,2.28
2023-02-12T20:54:43.425Z,2.72
2023-02-12T20:57:46.714Z,2.05
2023-02-12T21:00:48.914Z,2.30
2023-02-12T21:03:53.946Z,2.20
2023-02-12T21:06:56.121Z,2.13
2023-02-12T21:09:58.692Z,2.90
2023-02-12T21:13:00.844Z,2.17
2023-02-12T21:16:11.913Z,2.42
2023-02-12T21:19:14.371Z,2.33
2023-02-12T21:22:16.868Z,2.70
2023-02-12T21:25:18.846Z,2.53
2023-02-12T21:28:21.452Z,2.67
2023-02-12T21:31:27.051Z,2.30
2023-02-12T21:34:30.265Z,2.55
2023-02-12T21:37:32.252Z,2.40
2023-02-12T21:40:34.678Z,2.60
2023-02-12T21:43:37.607Z,2.42
2023-02-12T21:46:40.262Z,2.60
2023-02-12T21:49:44.205Z,2.30
2023-02-12T21:52:46.808Z,2.58
2023-02-12T21:55:49.590Z,2.80
2023-02-12T21:58:53.242Z,2.45
2023-02-12T22:01:56.391Z,2.25
2023-02-12T22:04:59.031Z,2.38
2023-02-12T22:08:01.789Z,2.53
2023-02-12T22:11:05.698Z,2.30
2023-02-12T22:14:09.238Z,2.23
2023-02-12T22:17:11.717Z,1.80
2023-02-12T22:20:14.225Z,2.47
2023-02-12T22:23:16.790Z,2.40
2023-02-12T22:26:26.304Z,6.35
2023-02-12T22:29:28.732Z,3.30
2023-02-12T22:32:30.981Z,3.35
2023-02-12T22:35:33.637Z,2.88
2023-02-12T22:38:37.382Z,3.60
2023-02-12T22:41:42.178Z,4.88
2023-02-12T22:44:44.433Z,10.35
2023-02-12T22:47:46.862Z,15.98
2023-02-12T22:50:49.044Z,11.85
2023-02-12T22:53:51.836Z,9.25
2023-02-12T22:56:54.239Z,5.18
2023-02-12T22:59:56.822Z,4.57
2023-02-12T23:02:59.269Z,5.72
2023-02-12T23:06:02.892Z,3.47
2023-02-12T23:09:05.260Z,3.00
2023-02-12T23:12:09.645Z,2.95
2023-02-12T23:15:11.687Z,2.83
2023-02-12T23:18:14.152Z,2.72
2023-02-12T23:21:17.297Z,2.90
2023-02-12T23:24:19.934Z,2.53
2023-02-12T23:27:22.336Z,2.92
2023-02-12T23:30:25.072Z,2.47
2023-02-12T23:33:27.106Z,2.60
2023-02-12T23:36:29.524Z,2.38
2023-02-12T23:39:31.595Z,2.55
2023-02-12T23:42:33.917Z,2.65
2023-02-12T23:45:35.945Z,2.60
2023-02-12T23:48:38.316Z,2.90
2023-02-12T23:51:40.440Z,3.08
2023-02-12T23:54:43.096Z,2.30
2023-02-12T23:57:46.448Z,2.90
